Kaw City, OK (74641)

4:14 PM CDT on July 01, 2015 (GMT -0500)
KOKKAWCI2 | | Change Station
CLOSE
Current Station
Personal Weather Station
Location: Kaw City, OK
Elevation: 1127 ft
Nearby Weather Stations

Elev 1127 ft 36.76 °N, 96.87 °W | Updated 14 minutes ago

Clear
Clear
92.7 °F
Feels Like 99 °F
N
5.1
Wind Variable Wind from SSW
Gusts 13.6 mph

Today
High -- | Low -- °F
--% Chance of Precip.
Yesterday
High -- | Low -- °F
Precip. -- in
6:12 AM 8:50 PM
Full, 100% visible
Pressure 29.74 in
Visibility 10.0 miles
Clouds Clear
Heat Index 99 °F
Dew Point 70 °F
Humidity 48%
Rainfall 0.00 in
Snow Depth Not available.
UV 9 out of 12
Pollen 3.00 out of 12
Air Quality Not available.
Flu Activity Not available.
METAR KPNC 012053Z AUTO 21017G26KT 10SM CLR 38/19 A2979 RMK AO2 PK WND 21029/2002 SLP070 T03780189 56008

More Conditions Fewer Conditions

Pressure 29.74 in
Visibility 10.0 miles
Clouds Clear
Heat Index 99 °F
Dew Point 70 °F
Humidity 48%
Rainfall 0.00 in
Snow Depth Not available.
UV 9 out of 12
Pollen 3.00 out of 12
Air Quality Not available.
Flu Activity Not available.
METAR KPNC 012053Z AUTO 21017G26KT 10SM CLR 38/19 A2979 RMK AO2 PK WND 21029/2002 SLP070 T03780189 56008

More Conditions Fewer Conditions

10-Day Weather Forecast

×

Almanac

Astronomy

Jul. 01, 2015 Rise Set
Actual Time
Civil Twilight
Nautical Twilight
Astronomical Twilight
Moon
Length of Visible Light
Length of Day
Tomorrow will be .
, % of the Moon is Illuminated

Today's Extremes

State Highs State Lows

Community

WunderPhotos

Upload Photos

1,834,286 photos uploaded!

WunderBlogs® & News

Nearby

Air Quality

  Air Quality AQ Index Pollutant
Not available.

Snow Depth

Station Depth Elevation

Earthquake Activity

City Distance Mag. Time & Date
Minimum magnitude displayed is 2.5.

Coastal Water Temperatures

Place Temperature

Stations

Nearby Weather Stations

Station Location Temp. Windchill Dew Point Humidity Wind Precip. Elev Updated Type